createdAt,value
2017-12-26T00:01:10.025Z,18.35
2017-12-26T00:03:44.563Z,15.90
2017-12-26T00:06:18.333Z,16.10
2017-12-26T00:08:52.180Z,16.85
2017-12-26T00:11:26.838Z,14.73
2017-12-26T00:14:00.753Z,15.50
2017-12-26T00:16:35.391Z,18.45
2017-12-26T00:19:09.088Z,13.75
2017-12-26T00:21:43.756Z,16.62
2017-12-26T00:24:18.141Z,14.75
2017-12-26T00:26:53.396Z,16.70
2017-12-26T00:29:27.181Z,19.33
2017-12-26T00:32:01.008Z,16.20
2017-12-26T00:34:35.621Z,17.48
2017-12-26T00:37:09.539Z,16.70
2017-12-26T00:39:44.152Z,19.33
2017-12-26T00:42:18.293Z,16.40
2017-12-26T00:44:52.117Z,18.83
2017-12-26T00:47:26.722Z,17.40
2017-12-26T00:50:00.492Z,20.83
2017-12-26T00:52:34.602Z,15.30
2017-12-26T00:55:08.304Z,18.15
2017-12-26T00:57:43.172Z,17.23
2017-12-26T01:00:17.766Z,15.75
2017-12-26T01:02:52.487Z,17.65
2017-12-26T01:05:27.018Z,19.27
2017-12-26T01:08:00.817Z,15.95
2017-12-26T01:10:35.370Z,14.50
2017-12-26T01:13:09.518Z,14.43
2017-12-26T01:15:44.811Z,14.98
2017-12-26T01:18:18.545Z,13.50
2017-12-26T01:20:53.040Z,18.60
2017-12-26T01:23:28.044Z,15.80
2017-12-26T01:26:02.699Z,15.35
2017-12-26T01:28:36.545Z,15.35
2017-12-26T01:31:10.345Z,15.07
2017-12-26T01:33:44.061Z,13.62
2017-12-26T01:36:17.888Z,14.65
2017-12-26T01:38:51.591Z,12.82
2017-12-26T01:41:25.360Z,13.32
2017-12-26T01:44:00.022Z,12.48
2017-12-26T01:46:33.821Z,11.30
2017-12-26T01:49:09.125Z,12.90
2017-12-26T01:51:42.941Z,14.20
2017-12-26T01:54:17.721Z,15.05
2017-12-26T01:56:51.550Z,14.15
2017-12-26T01:59:25.464Z,13.77
2017-12-26T02:01:59.878Z,13.10
2017-12-26T02:04:33.740Z,12.27
2017-12-26T02:07:08.299Z,11.15
2017-12-26T02:09:42.146Z,14.85
2017-12-26T02:12:15.966Z,14.48
2017-12-26T02:14:49.771Z,13.95
2017-12-26T02:17:24.351Z,13.60
2017-12-26T02:19:58.897Z,11.75
2017-12-26T02:22:32.772Z,13.23
2017-12-26T02:25:07.643Z,13.30
2017-12-26T02:27:41.450Z,12.55
2017-12-26T02:30:15.658Z,12.00
2017-12-26T02:32:50.158Z,12.52
2017-12-26T02:35:24.787Z,10.63
2017-12-26T02:37:58.511Z,14.35
2017-12-26T02:40:33.336Z,13.57
2017-12-26T02:43:07.095Z,12.65
2017-12-26T02:45:42.082Z,14.48
2017-12-26T02:48:15.908Z,11.80
2017-12-26T02:50:50.472Z,14.30
2017-12-26T02:53:24.270Z,13.15
2017-12-26T02:55:58.705Z,13.48
2017-12-26T02:58:33.389Z,11.80
2017-12-26T03:01:07.229Z,10.80
2017-12-26T03:03:41.277Z,9.80
2017-12-26T03:06:15.132Z,13.13
2017-12-26T03:08:48.993Z,11.82
2017-12-26T03:11:22.840Z,12.05
2017-12-26T03:13:56.698Z,17.85
2017-12-26T03:16:30.528Z,14.00
2017-12-26T03:19:04.299Z,11.95
2017-12-26T03:21:38.127Z,10.30
2017-12-26T03:24:13.063Z,12.20
2017-12-26T03:26:46.931Z,16.27
2017-12-26T03:29:22.607Z,15.30
2017-12-26T03:31:57.222Z,12.27
2017-12-26T03:34:32.072Z,10.88
2017-12-26T03:37:05.937Z,9.55
2017-12-26T03:39:39.713Z,13.05
2017-12-26T03:42:13.498Z,11.70
2017-12-26T03:44:47.373Z,11.60
2017-12-26T03:47:22.723Z,11.57
2017-12-26T03:49:56.762Z,13.88
2017-12-26T03:52:31.353Z,9.80
2017-12-26T03:55:05.956Z,11.98
2017-12-26T03:57:39.807Z,13.13
2017-12-26T04:00:13.521Z,12.75
2017-12-26T04:02:47.389Z,9.98
2017-12-26T04:05:21.809Z,13.73
2017-12-26T04:07:55.649Z,9.90
2017-12-26T04:10:29.448Z,11.55
2017-12-26T04:13:04.106Z,14.40
2017-12-26T04:15:38.668Z,15.25
2017-12-26T04:18:12.580Z,14.02
2017-12-26T04:20:47.113Z,12.43
2017-12-26T04:23:20.972Z,8.88
2017-12-26T04:25:54.797Z,8.20
2017-12-26T04:28:29.004Z,12.32
2017-12-26T04:31:02.864Z,12.35
2017-12-26T04:33:36.928Z,12.13
2017-12-26T04:36:10.697Z,12.18
2017-12-26T04:38:44.583Z,10.30
2017-12-26T04:41:19.424Z,11.70
2017-12-26T04:43:54.033Z,12.57
2017-12-26T04:46:27.877Z,13.25
2017-12-26T04:49:02.345Z,11.32
2017-12-26T04:51:37.148Z,11.38
2017-12-26T04:54:11.329Z,11.77
2017-12-26T04:56:45.073Z,12.63
2017-12-26T04:59:18.740Z,11.93
2017-12-26T05:01:52.852Z,14.20
2017-12-26T05:04:26.660Z,11.73
2017-12-26T05:07:00.452Z,10.55
2017-12-26T05:09:34.356Z,11.45
2017-12-26T05:12:08.210Z,9.20
2017-12-26T05:14:41.912Z,11.18
2017-12-26T05:17:15.584Z,10.48
2017-12-26T05:19:49.547Z,11.18
2017-12-26T05:22:23.359Z,11.15
2017-12-26T05:24:57.412Z,11.43
2017-12-26T05:27:31.185Z,12.85
2017-12-26T05:30:05.052Z,12.90
2017-12-26T05:32:38.895Z,11.30
2017-12-26T05:35:12.632Z,11.70
2017-12-26T05:37:46.468Z,11.12
2017-12-26T05:40:20.222Z,10.10
2017-12-26T05:42:53.966Z,8.52
2017-12-26T05:45:27.836Z,8.48
2017-12-26T05:48:01.976Z,9.27
2017-12-26T05:50:35.637Z,12.80
2017-12-26T05:53:09.736Z,8.60
2017-12-26T05:55:44.393Z,10.48
2017-12-26T05:58:18.194Z,9.77
2017-12-26T06:00:52.036Z,9.65
2017-12-26T06:03:26.123Z,10.00
2017-12-26T06:05:59.880Z,9.43
2017-12-26T06:08:34.788Z,12.40
2017-12-26T06:11:08.533Z,15.07
2017-12-26T06:13:42.605Z,12.73
2017-12-26T06:16:16.683Z,11.52
2017-12-26T06:18:50.382Z,11.23
2017-12-26T06:21:24.328Z,11.82
2017-12-26T06:23:57.884Z,11.82
2017-12-26T06:26:31.682Z,9.40
2017-12-26T06:29:05.330Z,10.68
2017-12-26T06:31:39.099Z,8.70
2017-12-26T06:34:12.918Z,10.00
2017-12-26T06:36:46.952Z,8.80
2017-12-26T06:39:21.604Z,9.63
2017-12-26T06:41:55.184Z,8.18
2017-12-26T06:44:29.712Z,8.85
2017-12-26T06:47:03.551Z,10.50
2017-12-26T06:49:37.361Z,10.90
2017-12-26T06:52:11.232Z,9.45
2017-12-26T06:54:44.897Z,9.10
2017-12-26T06:57:18.652Z,10.10
2017-12-26T06:59:52.433Z,8.75
2017-12-26T07:02:26.232Z,8.27
2017-12-26T07:05:00.737Z,8.57
2017-12-26T07:07:34.473Z,9.55
2017-12-26T07:10:08.172Z,11.05
2017-12-26T07:12:42.184Z,9.20
2017-12-26T07:15:16.620Z,9.93
2017-12-26T07:17:50.204Z,9.07
2017-12-26T07:44:38.084Z,10.25
2017-12-26T07:47:12.144Z,12.05
2017-12-26T07:49:46.075Z,10.55
2017-12-26T07:52:19.904Z,9.00
2017-12-26T07:54:53.820Z,11.43
2017-12-26T07:57:27.738Z,12.45
2017-12-26T08:00:01.602Z,15.05
2017-12-26T08:02:36.177Z,16.27
2017-12-26T08:05:10.736Z,13.32
2017-12-26T08:07:44.550Z,10.77
2017-12-26T08:10:19.991Z,10.10
2017-12-26T08:12:53.871Z,8.75
2017-12-26T08:15:28.503Z,11.10
2017-12-26T08:18:02.726Z,9.25
2017-12-26T08:20:37.495Z,10.70
2017-12-26T08:23:11.492Z,10.02
2017-12-26T08:25:46.961Z,11.93
2017-12-26T08:28:20.869Z,11.20
2017-12-26T08:30:55.442Z,10.07
2017-12-26T08:33:29.994Z,9.70
2017-12-26T08:36:03.807Z,10.20
2017-12-26T08:38:37.863Z,11.35
2017-12-26T08:41:11.750Z,9.52
2017-12-26T08:43:45.697Z,12.02
2017-12-26T08:46:19.583Z,11.35
2017-12-26T08:48:54.552Z,10.95
2017-12-26T08:51:28.326Z,7.68
2017-12-26T08:54:02.293Z,6.25
2017-12-26T08:56:37.061Z,5.15
2017-12-26T08:59:11.899Z,3.42
2017-12-26T09:01:46.635Z,3.87
2017-12-26T09:04:20.456Z,3.28
2017-12-26T09:06:54.487Z,4.15
2017-12-26T09:09:28.465Z,3.97
2017-12-26T09:12:02.626Z,6.10
2017-12-26T09:14:36.451Z,7.35
2017-12-26T09:17:13.854Z,5.05
2017-12-26T09:19:48.672Z,5.60
2017-12-26T09:22:24.372Z,6.25
2017-12-26T09:24:58.239Z,8.35
2017-12-26T09:27:37.304Z,8.38
2017-12-26T09:30:11.243Z,4.18
2017-12-26T09:32:46.160Z,6.45
2017-12-26T09:35:22.050Z,7.20
2017-12-26T09:37:55.864Z,11.38
2017-12-26T09:40:29.770Z,8.50
2017-12-26T09:43:04.392Z,7.87
2017-12-26T09:45:38.344Z,6.50
2017-12-26T09:48:12.080Z,5.05
2017-12-26T09:50:47.033Z,4.32
2017-12-26T09:53:22.396Z,5.97
2017-12-26T09:56:01.604Z,5.35
2017-12-26T09:58:36.239Z,4.68
2017-12-26T10:01:13.324Z,4.53
2017-12-26T10:03:47.738Z,5.25
2017-12-26T10:06:22.778Z,5.45
2017-12-26T10:08:56.572Z,2.75
2017-12-26T10:11:30.481Z,4.28
2017-12-26T10:14:04.269Z,3.72
2017-12-26T10:16:41.979Z,4.95
2017-12-26T10:19:16.807Z,3.58
2017-12-26T10:21:50.692Z,3.33
2017-12-26T10:24:24.493Z,3.90
2017-12-26T10:26:59.453Z,4.20
2017-12-26T10:29:33.512Z,4.35
2017-12-26T10:32:07.273Z,4.55
2017-12-26T10:34:44.456Z,4.40
2017-12-26T10:37:18.302Z,3.28
2017-12-26T10:39:52.480Z,2.55
2017-12-26T10:42:26.968Z,2.80
2017-12-26T10:45:02.529Z,2.37
2017-12-26T10:47:36.400Z,2.28
2017-12-26T10:50:11.960Z,3.05
2017-12-26T10:52:46.659Z,2.10
2017-12-26T10:55:21.724Z,3.47
2017-12-26T10:57:55.617Z,2.95
2017-12-26T11:00:29.526Z,2.40
2017-12-26T11:03:03.442Z,2.15
2017-12-26T11:05:37.418Z,2.47
2017-12-26T11:08:11.235Z,2.10
2017-12-26T11:10:45.085Z,1.85
2017-12-26T11:13:18.914Z,2.15
2017-12-26T11:15:58.965Z,2.40
2017-12-26T11:18:33.540Z,2.45
2017-12-26T11:21:07.569Z,3.90
2017-12-26T11:23:41.853Z,1.20
2017-12-26T11:26:16.517Z,1.60
2017-12-26T11:28:51.214Z,2.37
2017-12-26T11:31:25.094Z,0.73
2017-12-26T11:33:58.919Z,3.62
2017-12-26T11:36:32.808Z,0.73
2017-12-26T11:39:08.479Z,0.90
2017-12-26T11:41:42.600Z,1.00
2017-12-26T11:44:16.600Z,1.10
2017-12-26T11:46:50.480Z,1.65
2017-12-26T11:49:26.052Z,2.15
2017-12-26T11:52:00.702Z,2.95
2017-12-26T11:54:34.774Z,1.35
2017-12-26T11:57:08.774Z,1.05
2017-12-26T11:59:42.833Z,1.87
2017-12-26T12:02:16.691Z,1.58
2017-12-26T12:04:50.624Z,1.02
2017-12-26T12:07:24.499Z,1.75
2017-12-26T12:09:58.355Z,0.98
2017-12-26T12:12:32.137Z,1.40
2017-12-26T12:15:06.028Z,0.90
2017-12-26T12:17:39.889Z,1.92
2017-12-26T12:20:13.601Z,1.35
2017-12-26T12:22:48.179Z,0.57
2017-12-26T12:25:22.093Z,1.27
2017-12-26T12:27:55.843Z,1.40
2017-12-26T12:30:29.474Z,1.12
2017-12-26T12:33:04.058Z,0.70
2017-12-26T12:35:37.758Z,1.08
2017-12-26T12:38:11.601Z,0.40
2017-12-26T12:40:45.351Z,1.65
2017-12-26T12:43:19.889Z,2.87
2017-12-26T12:45:53.918Z,1.70
2017-12-26T12:48:27.700Z,1.80
2017-12-26T12:51:01.488Z,1.55
2017-12-26T12:53:35.221Z,0.60
2017-12-26T12:56:09.054Z,0.68
2017-12-26T12:58:42.845Z,0.82
2017-12-26T13:01:16.542Z,0.90
2017-12-26T13:03:50.346Z,1.02
2017-12-26T13:06:25.582Z,2.20
2017-12-26T13:08:59.431Z,0.70
2017-12-26T13:11:33.178Z,0.80
2017-12-26T13:14:06.971Z,0.77
2017-12-26T13:16:41.501Z,0.60
2017-12-26T13:19:15.437Z,0.90
2017-12-26T13:21:49.281Z,0.60
2017-12-26T13:24:23.147Z,0.90
2017-12-26T13:26:57.697Z,0.90
2017-12-26T13:29:32.368Z,0.85
2017-12-26T13:32:06.145Z,1.40
2017-12-26T13:34:39.909Z,0.80
2017-12-26T13:37:13.806Z,1.00
2017-12-26T13:39:48.206Z,1.90
2017-12-26T13:42:22.064Z,4.43
2017-12-26T13:44:56.637Z,0.70
2017-12-26T13:47:30.423Z,4.90
2017-12-26T13:50:04.153Z,2.33
2017-12-26T13:52:38.717Z,1.10
2017-12-26T13:55:12.356Z,0.62
2017-12-26T13:57:46.929Z,1.23
2017-12-26T14:00:20.727Z,1.15
2017-12-26T14:02:54.550Z,2.33
2017-12-26T14:05:28.311Z,1.33
2017-12-26T14:08:02.094Z,2.35
2017-12-26T14:10:35.765Z,0.50
2017-12-26T14:13:09.609Z,2.37
2017-12-26T14:15:44.161Z,1.15
2017-12-26T14:18:18.051Z,0.80
2017-12-26T14:20:51.653Z,0.60
2017-12-26T14:23:25.487Z,0.90
2017-12-26T14:26:00.088Z,0.85
2017-12-26T14:28:34.022Z,0.73
2017-12-26T14:31:07.822Z,1.12
2017-12-26T14:33:42.327Z,0.60
2017-12-26T14:36:16.103Z,1.45
2017-12-26T14:38:49.832Z,1.50
2017-12-26T14:41:23.759Z,2.45
2017-12-26T14:43:57.535Z,0.70
2017-12-26T14:46:32.376Z,1.30
2017-12-26T14:49:06.261Z,0.88
2017-12-26T14:51:40.959Z,0.70
2017-12-26T14:54:15.605Z,1.15
2017-12-26T14:56:49.404Z,0.55
2017-12-26T14:59:23.279Z,0.52
2017-12-26T15:01:57.140Z,3.47
2017-12-26T15:04:30.961Z,2.03
2017-12-26T15:07:05.468Z,0.90
2017-12-26T15:09:40.869Z,2.00
2017-12-26T15:12:14.666Z,1.48
2017-12-26T15:14:48.421Z,0.90
2017-12-26T15:17:26.700Z,1.20
2017-12-26T15:20:01.280Z,1.67
2017-12-26T15:22:35.259Z,3.30
2017-12-26T15:25:09.217Z,1.42
2017-12-26T15:27:43.045Z,3.15
2017-12-26T15:30:16.875Z,3.55
2017-12-26T15:32:51.351Z,3.12
2017-12-26T15:35:25.196Z,3.62
2017-12-26T15:37:59.009Z,2.00
2017-12-26T15:40:33.617Z,3.35
2017-12-26T15:43:07.298Z,3.37
2017-12-26T15:45:41.109Z,3.17
2017-12-26T15:48:14.968Z,2.15
2017-12-26T15:50:48.750Z,3.28
2017-12-26T15:53:22.881Z,1.50
2017-12-26T15:55:56.504Z,1.35
2017-12-26T15:58:30.360Z,3.30
2017-12-26T16:01:04.160Z,0.88
2017-12-26T16:03:37.876Z,2.12
2017-12-26T16:06:12.452Z,1.70
2017-12-26T16:08:47.940Z,2.15
2017-12-26T16:11:21.537Z,2.60
2017-12-26T16:13:56.151Z,3.17
2017-12-26T16:16:30.744Z,6.28
2017-12-26T16:19:05.600Z,2.30
2017-12-26T16:21:39.395Z,5.35
2017-12-26T16:24:13.213Z,2.95
2017-12-26T16:26:46.864Z,3.12
2017-12-26T16:29:20.756Z,1.83
2017-12-26T16:31:54.669Z,2.80
2017-12-26T16:34:28.349Z,2.97
2017-12-26T16:37:02.112Z,2.20
2017-12-26T16:39:35.976Z,1.83
2017-12-26T16:42:09.745Z,1.35
2017-12-26T16:44:43.551Z,2.65
2017-12-26T16:47:18.198Z,3.37
2017-12-26T16:49:51.970Z,1.30
2017-12-26T16:52:25.825Z,1.58
2017-12-26T16:54:59.660Z,3.62
2017-12-26T16:57:34.237Z,3.92
2017-12-26T17:00:07.976Z,2.75
2017-12-26T17:02:42.568Z,7.25
2017-12-26T17:05:16.450Z,3.00
2017-12-26T17:07:50.252Z,7.05
2017-12-26T17:10:24.867Z,7.70
2017-12-26T17:12:59.696Z,3.33
2017-12-26T17:15:33.376Z,2.90
2017-12-26T17:18:07.176Z,2.50
2017-12-26T17:20:40.968Z,2.75
2017-12-26T17:23:14.726Z,2.40
2017-12-26T17:25:48.568Z,1.95
2017-12-26T17:28:22.456Z,2.50
2017-12-26T17:30:57.074Z,1.70
2017-12-26T17:33:30.875Z,2.83
2017-12-26T17:36:04.687Z,3.55
2017-12-26T17:38:38.481Z,9.43
2017-12-26T17:41:12.301Z,3.37
2017-12-26T17:43:46.183Z,4.80
2017-12-26T17:46:20.734Z,4.32
2017-12-26T17:48:54.582Z,2.97
2017-12-26T17:51:28.366Z,4.05
2017-12-26T17:54:03.058Z,3.92
2017-12-26T17:56:37.614Z,5.70
2017-12-26T17:59:11.633Z,4.72
2017-12-26T18:01:45.285Z,3.95
2017-12-26T18:04:19.122Z,3.75
2017-12-26T18:06:53.040Z,7.15
2017-12-26T18:09:27.742Z,5.78
2017-12-26T18:12:02.367Z,5.97
2017-12-26T18:14:36.137Z,5.22
2017-12-26T18:17:09.974Z,2.97
2017-12-26T18:19:44.513Z,3.37
2017-12-26T18:22:19.219Z,3.25
2017-12-26T18:24:52.978Z,2.67
2017-12-26T18:27:32.076Z,4.30
2017-12-26T18:30:05.810Z,5.03
2017-12-26T18:32:40.426Z,2.75
2017-12-26T18:35:14.306Z,4.90
2017-12-26T18:37:48.971Z,6.68
2017-12-26T18:40:22.795Z,8.82
2017-12-26T18:42:56.681Z,8.40
2017-12-26T18:45:30.528Z,5.30
2017-12-26T18:48:04.407Z,9.65
2017-12-26T18:50:38.191Z,2.20
2017-12-26T18:53:12.746Z,3.30
2017-12-26T18:55:46.899Z,2.80
2017-12-26T18:58:20.833Z,3.75
2017-12-26T19:00:55.336Z,3.62
2017-12-26T19:03:30.026Z,3.12
2017-12-26T19:06:03.921Z,4.47
2017-12-26T19:08:38.417Z,2.65
2017-12-26T19:11:12.104Z,7.20
2017-12-26T19:13:47.785Z,6.12
2017-12-26T19:16:22.422Z,2.70
2017-12-26T19:18:56.402Z,4.05
2017-12-26T19:21:31.295Z,4.07
2017-12-26T19:24:05.986Z,3.33
2017-12-26T19:26:39.754Z,5.28
2017-12-26T19:29:13.525Z,3.90
2017-12-26T19:31:47.356Z,3.62
2017-12-26T19:34:21.243Z,5.05
2017-12-26T19:36:55.076Z,4.47
2017-12-26T19:39:29.653Z,4.47
2017-12-26T19:42:03.304Z,4.53
2017-12-26T19:44:37.208Z,5.03
2017-12-26T19:47:11.782Z,3.42
2017-12-26T19:49:45.546Z,4.87
2017-12-26T19:52:19.402Z,6.97
2017-12-26T19:54:53.262Z,4.00
2017-12-26T19:57:27.052Z,5.68
2017-12-26T20:00:00.925Z,4.68
2017-12-26T20:02:34.763Z,4.78
2017-12-26T20:05:08.553Z,4.30
2017-12-26T20:07:42.776Z,5.70
2017-12-26T20:10:16.601Z,6.50
2017-12-26T20:12:50.418Z,5.53
2017-12-26T20:15:24.156Z,6.90
2017-12-26T20:17:58.707Z,5.12
2017-12-26T20:20:37.925Z,5.45
2017-12-26T20:23:12.599Z,4.97
2017-12-26T20:25:46.486Z,7.75
2017-12-26T20:28:26.169Z,6.75
2017-12-26T20:30:59.922Z,6.72
2017-12-26T20:33:33.767Z,9.50
2017-12-26T20:36:07.625Z,8.95
2017-12-26T20:38:41.506Z,11.65
2017-12-26T20:41:15.202Z,7.78
2017-12-26T20:43:50.119Z,10.75
2017-12-26T20:46:23.885Z,18.27
2017-12-26T20:48:58.717Z,7.40
2017-12-26T20:51:32.515Z,8.38
2017-12-26T20:54:07.067Z,9.02
2017-12-26T20:56:41.023Z,5.55
2017-12-26T20:59:15.661Z,6.72
2017-12-26T21:01:49.486Z,6.70
2017-12-26T21:04:23.334Z,7.47
2017-12-26T21:06:57.238Z,6.53
2017-12-26T21:09:31.832Z,8.00
2017-12-26T21:12:06.441Z,5.82
2017-12-26T21:14:40.445Z,6.47
2017-12-26T21:17:15.134Z,6.22
2017-12-26T21:19:49.365Z,5.22
2017-12-26T21:22:23.113Z,5.68
2017-12-26T21:24:57.023Z,5.87
2017-12-26T21:27:30.810Z,5.60
2017-12-26T21:30:05.436Z,8.63
2017-12-26T21:32:39.306Z,7.12
2017-12-26T21:35:13.479Z,5.80
2017-12-26T21:37:47.249Z,7.62
2017-12-26T21:40:21.911Z,6.90
2017-12-26T21:42:55.693Z,7.50
2017-12-26T21:45:29.550Z,8.32
2017-12-26T21:48:06.446Z,9.25
2017-12-26T21:50:41.120Z,8.15
2017-12-26T21:53:14.977Z,8.70
2017-12-26T21:55:48.661Z,7.50
2017-12-26T21:58:22.735Z,7.45
2017-12-26T22:00:57.316Z,6.10
2017-12-26T22:03:31.967Z,7.10
2017-12-26T22:06:05.847Z,7.72
2017-12-26T22:08:40.416Z,5.78
2017-12-26T22:11:14.206Z,9.43
2017-12-26T22:13:48.863Z,8.40
2017-12-26T22:16:22.858Z,8.85
2017-12-26T22:18:56.647Z,11.30
2017-12-26T22:21:30.675Z,5.97
2017-12-26T22:24:04.435Z,7.82
2017-12-26T22:26:39.022Z,14.68
2017-12-26T22:29:13.606Z,5.65
2017-12-26T22:31:48.263Z,10.80
2017-12-26T22:34:22.250Z,8.15
2017-12-26T22:36:56.077Z,6.22
2017-12-26T22:39:29.859Z,10.07
2017-12-26T22:42:04.659Z,7.32
2017-12-26T22:44:39.336Z,7.40
2017-12-26T22:47:13.344Z,7.15
2017-12-26T22:49:47.942Z,7.55
2017-12-26T22:52:22.101Z,6.45
2017-12-26T22:54:55.943Z,9.07
2017-12-26T22:57:29.829Z,7.25
2017-12-26T23:00:04.445Z,12.13
2017-12-26T23:02:38.317Z,8.23
2017-12-26T23:05:12.218Z,6.43
2017-12-26T23:07:47.593Z,6.85
2017-12-26T23:10:22.190Z,6.22
2017-12-26T23:12:56.055Z,8.40
2017-12-26T23:15:35.751Z,6.22
2017-12-26T23:18:25.416Z,8.32
2017-12-26T23:20:59.960Z,8.65
2017-12-26T23:58:34.201Z,5.80
